Time;durP1;ratioP1;P1;durP2;ratioP2;P2;SDS_P1;SDS_P2;PMS_P1;PMS_P2;Temp;Humidity;BMP_temperature;BMP_pressure;BME280_temperature;BME280_humidity;BME280_pressure;Samples;Min_cycle;Max_cycle;Signal;HPM_P1;HPM_P2
2022/06/21 00:00:56;;;;;;;;;;;;;;;28.05;34.83;100107.75;5116023;28;1143;-35
2022/06/21 00:03:22;;;;;;;;;;;;;;;28.01;34.61;100101.91;5102560;28;1099;-38
2022/06/21 00:05:48;;;;;;;;;;;;;;;28.00;35.05;100108.34;5086740;28;926;-37
2022/06/21 00:08:17;;;;;;;;;;;;;;;28.04;35.29;100106.09;5105623;28;1015;-39
2022/06/21 00:10:43;;;;;;;;;;;;;;;28.07;35.10;100109.22;5093888;28;1007;-38
2022/06/21 00:13:10;;;;;;;;;;;;;;;28.03;34.77;100099.84;5095534;28;1031;-40
2022/06/21 00:15:35;;;;;;;;;;;;;;;28.07;34.73;100102.97;5096922;28;1023;-40
2022/06/21 00:18:00;;;;;;;;;;;;;;;28.05;34.60;100100.47;5099986;28;1953;-36
2022/06/21 00:20:27;;;;;;;;;;;;;;;28.03;35.21;100102.53;5098279;28;980;-39
2022/06/21 00:22:52;;;;;;;;;;;;;;;28.08;34.74;100105.47;5100122;28;1088;-40
2022/06/21 00:25:18;;;;;;;;;;;;;;;28.05;34.80;100107.75;5100137;28;1004;-39
2022/06/21 00:27:44;;;;;;;;;;;;;;;28.02;35.21;100108.16;5115455;28;1198;-39
2022/06/21 00:30:09;;;;;;;;;;;;;;;28.08;35.01;100105.47;5107675;28;976;-40
2022/06/21 00:32:35;;;;;;;;;;;;;;;28.11;34.86;100110.47;5110000;28;956;-39
2022/06/21 00:35:00;;;;;;;;;;;;;;;28.08;35.10;100104.63;5095459;28;942;-40
2022/06/21 00:37:25;;;;;;;;;;;;;;;28.05;34.61;100102.34;5097831;28;2029;-39
2022/06/21 00:39:51;;;;;;;;;;;;;;;28.06;34.81;100094.00;5099883;28;976;-39
2022/06/21 00:42:21;;;;;;;;;;;;;;;28.06;34.38;100093.19;5099959;28;1000;-40
2022/06/21 00:44:50;;;;;;;;;;;;;;;28.09;34.57;100082.78;5095036;28;953;-39
2022/06/21 00:47:17;;;;;;;;;;;;;;;28.10;34.33;100086.31;5098727;28;1001;-39
2022/06/21 00:49:51;;;;;;;;;;;;;;;28.08;35.13;100081.13;5098411;28;1191;-38
2022/06/21 00:52:18;;;;;;;;;;;;;;;28.07;34.89;100078.63;5103336;28;1017;-39
2022/06/21 00:54:52;;;;;;;;;;;;;;;28.06;35.00;100072.38;5098358;28;1202;-37
2022/06/21 00:57:18;;;;;;;;;;;;;;;28.14;34.81;100065.13;5103944;28;1958;-38
2022/06/21 00:59:44;;;;;;;;;;;;;;;28.10;34.93;100064.69;5097887;28;983;-36
2022/06/21 01:02:29;;;;;;;;;;;;;;;28.11;35.17;100069.91;5099801;28;1202;-38
2022/06/21 01:04:55;;;;;;;;;;;;;;;28.10;34.70;100059.28;5106812;28;964;-38
2022/06/21 01:07:20;;;;;;;;;;;;;;;28.09;34.52;100063.03;5094997;28;1088;-39
2022/06/21 01:09:50;;;;;;;;;;;;;;;28.10;34.60;100067.41;5091644;28;988;-39
2022/06/21 01:12:17;;;;;;;;;;;;;;;28.05;34.84;100059.91;5099055;28;1209;-39
2022/06/21 01:14:54;;;;;;;;;;;;;;;28.09;34.81;100066.56;5093073;28;984;-40
2022/06/21 01:17:19;;;;;;;;;;;;;;;28.14;35.20;100063.25;5096692;28;1898;-40
2022/06/21 01:19:47;;;;;;;;;;;;;;;28.07;35.02;100062.41;5099214;28;1027;-38
2022/06/21 01:22:31;;;;;;;;;;;;;;;28.14;35.03;100075.94;5096100;28;994;-38
2022/06/21 01:25:00;;;;;;;;;;;;;;;28.09;34.86;100079.28;5099158;28;1118;-39
2022/06/21 01:27:26;;;;;;;;;;;;;;;28.13;34.73;100082.41;5097294;28;1128;-39
2022/06/21 01:29:51;;;;;;;;;;;;;;;28.09;34.89;100085.50;5097930;28;1003;-40
2022/06/21 01:32:16;;;;;;;;;;;;;;;28.11;34.53;100080.72;5098050;28;1043;-37
2022/06/21 01:34:42;;;;;;;;;;;;;;;28.13;34.87;100080.50;5097630;28;1024;-39
2022/06/21 01:37:18;;;;;;;;;;;;;;;28.13;34.93;100082.41;5095561;28;1918;-40
2022/06/21 01:39:46;;;;;;;;;;;;;;;28.12;35.03;100086.97;5095727;28;945;-40
2022/06/21 01:42:17;;;;;;;;;;;;;;;28.14;34.92;100084.91;5094973;28;992;-40
2022/06/21 01:44:44;;;;;;;;;;;;;;;28.14;35.05;100089.47;5101786;28;1189;-40
2022/06/21 01:47:11;;;;;;;;;;;;;;;28.14;34.94;100084.06;5105847;28;995;-36
2022/06/21 01:49:36;;;;;;;;;;;;;;;28.17;34.90;100089.03;5100741;28;1535;-40
2022/06/21 01:52:03;;;;;;;;;;;;;;;28.14;34.68;100082.19;5094033;28;1004;-39
2022/06/21 01:54:29;;;;;;;;;;;;;;;28.13;34.86;100080.50;5098322;28;964;-38
2022/06/21 01:56:54;;;;;;;;;;;;;;;28.09;34.63;100085.50;5101597;28;1969;-39
2022/06/21 01:59:24;;;;;;;;;;;;;;;28.14;34.96;100081.34;5107657;28;1024;-39
2022/06/21 02:01:51;;;;;;;;;;;;;;;28.13;34.79;100080.50;5093731;28;1043;-36
2022/06/21 02:04:18;;;;;;;;;;;;;;;28.08;34.75;100073.03;5098348;28;992;-38
2022/06/21 02:09:48;;;;;;;;;;;;;;;28.07;35.16;100075.94;5092555;28;853;-38
2022/06/21 02:12:13;;;;;;;;;;;;;;;28.08;35.11;100080.28;5098392;28;1166;-37
2022/06/21 02:14:40;;;;;;;;;;;;;;;28.08;35.18;100077.59;5096634;28;1045;-38
2022/06/21 02:17:11;;;;;;;;;;;;;;;28.12;35.15;100081.56;5096986;28;1963;-37
2022/06/21 02:19:48;;;;;;;;;;;;;;;28.09;35.16;100084.69;5096734;28;1049;-38
2022/06/21 02:22:14;;;;;;;;;;;;;;;28.05;34.68;100069.88;5096213;28;993;-38
2022/06/21 02:24:40;;;;;;;;;;;;;;;28.09;35.15;100061.16;5111399;28;944;-40
2022/06/21 02:27:05;;;;;;;;;;;;;;;28.14;34.81;100070.53;5105049;28;1003;-38
2022/06/21 02:29:30;;;;;;;;;;;;;;;28.09;34.95;100071.16;5092740;28;944;-40
2022/06/21 02:31:56;;;;;;;;;;;;;;;28.11;35.17;100078.00;5097501;28;1032;-39
2022/06/21 02:34:28;;;;;;;;;;;;;;;28.09;34.62;100076.56;5093183;28;1130;-40
2022/06/21 02:36:55;;;;;;;;;;;;;;;28.09;34.94;100073.88;5091133;28;1159;-40
2022/06/21 02:39:22;;;;;;;;;;;;;;;28.03;35.04;100072.81;5096492;28;1198;-40
2022/06/21 02:41:49;;;;;;;;;;;;;;;28.10;35.21;100073.66;5097378;28;1043;-39
2022/06/21 02:44:33;;;;;;;;;;;;;;;28.06;35.03;100071.56;5095907;28;1120;-39
2022/06/21 02:47:05;;;;;;;;;;;;;;;28.09;35.07;100068.44;5090471;28;806;-39
2022/06/21 02:52:37;;;;;;;;;;;;;;;28.08;35.16;100066.78;5092626;28;1021;-37
2022/06/21 02:55:21;;;;;;;;;;;;;;;28.11;35.18;100067.19;5096004;28;981;-37
2022/06/21 02:57:51;;;;;;;;;;;;;;;28.09;35.06;100063.84;5097123;28;1890;-37
2022/06/21 03:00:17;;;;;;;;;;;;;;;28.06;34.58;100048.06;5099338;28;1011;-39
2022/06/21 03:02:42;;;;;;;;;;;;;;;28.08;35.21;100040.56;5095555;28;1011;-37
2022/06/21 03:05:10;;;;;;;;;;;;;;;28.10;35.27;100043.91;5095338;28;1448;-39
2022/06/21 03:07:43;;;;;;;;;;;;;;;28.14;35.26;100052.44;5095896;28;1024;-40
2022/06/21 03:10:18;;;;;;;;;;;;;;;28.11;35.00;100045.56;5095387;28;992;-37
2022/06/21 03:12:44;;;;;;;;;;;;;;;28.12;34.79;100043.69;5098081;28;1234;-39
2022/06/21 03:15:09;;;;;;;;;;;;;;;28.14;35.11;100051.59;5096877;28;995;-39
2022/06/21 03:17:37;;;;;;;;;;;;;;;28.09;34.97;100047.63;5108407;28;1916;-36
2022/06/21 03:20:02;;;;;;;;;;;;;;;28.09;35.74;100050.34;5095573;28;1052;-38
2022/06/21 03:22:31;;;;;;;;;;;;;;;28.02;36.01;100044.13;5090091;28;1029;-37
2022/06/21 03:24:57;;;;;;;;;;;;;;;28.08;36.76;100045.13;5097099;28;972;-40
2022/06/21 03:27:46;;;;;;;;;;;;;;;28.06;37.35;100052.66;5094722;28;1129;-39
2022/06/21 03:30:12;;;;;;;;;;;;;;;28.04;37.12;100052.00;5094099;28;1138;-40
2022/06/21 03:32:37;;;;;;;;;;;;;;;27.49;35.63;100051.84;5092860;28;1314;-34
2022/06/21 03:35:03;;;;;;;;;;;;;;;26.86;36.91;100055.50;5089970;28;1083;-32
2022/06/21 03:37:28;;;;;;;;;;;;;;;26.65;36.99;100066.16;5093840;28;1913;-35
2022/06/21 03:42:38;;;;;;;;;;;;;;;26.46;36.89;100064.94;5097120;28;1166;-30
2022/06/21 03:45:05;;;;;;;;;;;;;;;26.00;37.40;100053.56;5095552;28;1024;-31
2022/06/21 03:47:33;;;;;;;;;;;;;;;26.04;37.86;100045.91;5096396;28;1020;-32
2022/06/21 03:50:19;;;;;;;;;;;;;;;25.84;37.61;100046.53;5091228;28;932;-36
2022/06/21 03:53:00;;;;;;;;;;;;;;;25.81;38.17;100038.84;5091739;28;1168;-32
2022/06/21 03:55:34;;;;;;;;;;;;;;;26.01;38.10;100040.88;5090372;28;906;-36
2022/06/21 03:58:15;;;;;;;;;;;;;;;26.37;37.19;100044.56;5093221;28;1962;-34
2022/06/21 04:00:44;;;;;;;;;;;;;;;26.19;37.16;100042.31;5092053;28;1031;-37
2022/06/21 04:03:30;;;;;;;;;;;;;;;26.23;37.08;100032.78;5093260;28;2289;-37
2022/06/21 04:05:59;;;;;;;;;;;;;;;26.35;36.83;100041.22;5108240;28;1983;-32
2022/06/21 04:08:30;;;;;;;;;;;;;;;26.24;36.93;100035.28;5099099;28;2188;-34
2022/06/21 04:11:06;;;;;;;;;;;;;;;26.15;37.34;100036.47;5103396;28;2146;-38
2022/06/21 04:13:34;;;;;;;;;;;;;;;26.09;37.88;100039.94;5101571;28;2291;-37
2022/06/21 04:16:19;;;;;;;;;;;;;;;26.02;38.33;100035.34;5104187;28;2140;-34
2022/06/21 04:19:04;;;;;;;;;;;;;;;25.88;36.67;100038.91;5095760;28;2069;-36
2022/06/21 04:21:32;;;;;;;;;;;;;;;26.04;37.72;100041.34;5095219;28;973;-37
2022/06/21 04:23:59;;;;;;;;;;;;;;;26.25;37.69;100036.97;5094433;28;1067;-36
2022/06/21 04:26:29;;;;;;;;;;;;;;;26.25;37.94;100039.66;5096139;28;1062;-32
2022/06/21 04:29:24;;;;;;;;;;;;;;;26.25;38.42;100042.38;5098605;28;999;-37
2022/06/21 04:31:51;;;;;;;;;;;;;;;26.35;38.09;100043.91;5076392;28;1237;-36
2022/06/21 04:34:20;;;;;;;;;;;;;;;26.51;37.46;100048.19;5094111;28;1115;-37
2022/06/21 04:36:50;;;;;;;;;;;;;;;26.51;37.46;100038.22;5091384;28;1051;-34
2022/06/21 04:39:18;;;;;;;;;;;;;;;26.60;37.62;100033.53;5094563;28;1901;-35
2022/06/21 04:41:46;;;;;;;;;;;;;;;26.69;37.52;100034.22;5092915;28;1357;-37
2022/06/21 04:44:12;;;;;;;;;;;;;;;26.74;37.84;100033.63;5094547;28;992;-39
2022/06/21 04:46:43;;;;;;;;;;;;;;;26.76;37.73;100034.22;5098473;28;1024;-35
2022/06/21 04:49:18;;;;;;;;;;;;;;;26.84;38.49;100030.56;5109065;28;2466;-34
2022/06/21 04:51:49;;;;;;;;;;;;;;;26.73;39.02;100037.34;5098021;28;917;-38
2022/06/21 04:54:14;;;;;;;;;;;;;;;26.64;39.76;100047.47;5108862;28;992;-38
2022/06/21 04:56:39;;;;;;;;;;;;;;;26.71;39.84;100037.53;5099849;28;1193;-36
2022/06/21 04:59:08;;;;;;;;;;;;;;;26.58;40.09;100030.19;5098771;28;1965;-35
2022/06/21 05:01:33;;;;;;;;;;;;;;;26.61;40.15;100023.59;5098250;28;1068;-36
2022/06/21 05:04:01;;;;;;;;;;;;;;;26.61;40.33;100018.19;5099570;28;1051;-35
2022/06/21 05:06:26;;;;;;;;;;;;;;;26.56;40.45;100015.25;5099436;28;956;-35
2022/06/21 05:08:51;;;;;;;;;;;;;;;26.58;40.36;100023.94;5100022;28;1145;-35
2022/06/21 05:11:16;;;;;;;;;;;;;;;26.74;38.74;100026.34;5098833;28;1019;-37
2022/06/21 05:13:47;;;;;;;;;;;;;;;26.78;39.79;100026.78;5099188;28;959;-39
2022/06/21 05:16:16;;;;;;;;;;;;;;;26.76;39.97;100021.59;5096341;28;1064;-37
2022/06/21 05:18:43;;;;;;;;;;;;;;;26.80;40.28;100026.59;5094032;28;1957;-36
2022/06/21 05:21:10;;;;;;;;;;;;;;;26.78;39.83;100016.84;5099630;28;1032;-36
2022/06/21 05:23:36;;;;;;;;;;;;;;;26.75;40.10;100006.44;5096969;28;1246;-38
2022/06/21 05:26:02;;;;;;;;;;;;;;;26.76;39.66;100008.09;5098186;28;1107;-36
2022/06/21 05:28:32;;;;;;;;;;;;;;;26.67;39.78;99994.97;5096693;28;1327;-38
2022/06/21 05:30:57;;;;;;;;;;;;;;;26.78;39.08;100002.50;5097175;28;1225;-36
2022/06/21 05:33:24;;;;;;;;;;;;;;;26.75;38.97;99998.34;5101053;28;867;-36
2022/06/21 05:35:49;;;;;;;;;;;;;;;26.89;38.46;99998.41;5101893;28;1006;-35
2022/06/21 05:38:20;;;;;;;;;;;;;;;26.93;38.42;99991.56;5094527;28;1918;-37
2022/06/21 05:40:51;;;;;;;;;;;;;;;26.87;37.98;99989.69;5096566;28;961;-38
2022/06/21 05:43:18;;;;;;;;;;;;;;;26.93;38.15;99979.94;5097258;28;1024;-33
2022/06/21 05:45:44;;;;;;;;;;;;;;;27.00;38.11;99989.75;5095642;28;922;-33
2022/06/21 05:48:17;;;;;;;;;;;;;;;27.04;37.91;99984.81;5094491;28;925;-36
2022/06/21 05:50:42;;;;;;;;;;;;;;;26.93;37.92;99980.78;5097227;28;937;-38
2022/06/21 05:53:21;;;;;;;;;;;;;;;26.96;37.81;99977.69;5089940;28;1211;-35
2022/06/21 05:55:46;;;;;;;;;;;;;;;26.99;38.01;99974.56;5098232;28;1167;-34
2022/06/21 05:58:16;;;;;;;;;;;;;;;26.98;38.85;99974.78;5091805;28;1902;-38
2022/06/21 06:00:44;;;;;;;;;;;;;;;26.97;38.43;99965.03;5106046;28;991;-35
2022/06/21 06:03:11;;;;;;;;;;;;;;;27.05;38.58;99969.44;5098102;28;956;-39
2022/06/21 06:05:37;;;;;;;;;;;;;;;27.07;38.62;99965.53;5092104;28;1108;-38
2022/06/21 06:08:06;;;;;;;;;;;;;;;27.02;38.65;99968.00;5114279;28;976;-37
2022/06/21 06:10:32;;;;;;;;;;;;;;;27.30;39.13;99972.44;5089998;28;995;-36
2022/06/21 06:12:59;;;;;;;;;;;;;;;27.28;38.37;99966.41;5096315;28;956;-37
2022/06/21 06:15:26;;;;;;;;;;;;;;;27.56;38.21;99975.41;5096322;28;1053;-35
2022/06/21 06:18:03;;;;;;;;;;;;;;;27.54;37.34;99982.88;5097930;28;1950;-36
2022/06/21 06:20:28;;;;;;;;;;;;;;;27.65;37.43;99976.03;5094304;28;1067;-35
2022/06/21 06:22:54;;;;;;;;;;;;;;;27.78;37.50;99967.16;5099991;28;976;-38
2022/06/21 06:25:27;;;;;;;;;;;;;;;27.71;36.81;99962.56;5101403;28;1046;-35
2022/06/21 06:27:59;;;;;;;;;;;;;;;27.67;36.80;99972.09;5102215;28;986;-39
2022/06/21 06:30:27;;;;;;;;;;;;;;;27.66;36.98;99956.91;5106209;28;874;-34
2022/06/21 06:32:57;;;;;;;;;;;;;;;27.64;37.55;99967.13;5089254;28;959;-41
2022/06/21 06:35:23;;;;;;;;;;;;;;;27.76;36.91;99956.53;5092088;28;965;-38
2022/06/21 06:37:48;;;;;;;;;;;;;;;27.83;36.89;99959.25;5094176;28;1976;-39
2022/06/21 06:40:18;;;;;;;;;;;;;;;28.04;37.03;99952.81;5102394;28;1014;-39
2022/06/21 06:42:44;;;;;;;;;;;;;;;27.96;36.57;99963.84;5093214;28;1124;-38
2022/06/21 06:45:12;;;;;;;;;;;;;;;28.03;36.36;99961.97;5096095;28;1060;-39
2022/06/21 06:47:38;;;;;;;;;;;;;;;28.06;36.39;99974.25;5097168;28;1027;-41
2022/06/21 06:50:03;;;;;;;;;;;;;;;28.10;36.08;99964.66;5106385;28;975;-38
2022/06/21 06:52:36;;;;;;;;;;;;;;;28.15;36.10;99970.28;5102557;28;991;-39
2022/06/21 06:55:07;;;;;;;;;;;;;;;28.25;36.41;99964.44;5090188;28;909;-41
2022/06/21 06:57:32;;;;;;;;;;;;;;;28.41;36.39;99970.50;5096955;28;1898;-42
2022/06/21 07:00:00;;;;;;;;;;;;;;;28.34;36.85;99968.59;5108438;28;1169;-40
2022/06/21 07:02:26;;;;;;;;;;;;;;;28.30;36.94;99972.75;5096077;28;897;-38
2022/06/21 07:04:54;;;;;;;;;;;;;;;28.38;37.06;99974.44;5099947;28;971;-37
2022/06/21 07:07:22;;;;;;;;;;;;;;;28.37;36.66;99964.66;5088892;28;996;-42
2022/06/21 07:09:48;;;;;;;;;;;;;;;28.48;36.95;99961.31;5095284;28;980;-40
2022/06/21 07:12:18;;;;;;;;;;;;;;;28.60;36.82;99963.38;5090486;28;1139;-40
2022/06/21 07:14:43;;;;;;;;;;;;;;;28.60;36.87;99966.06;5097095;28;977;-41
2022/06/21 07:17:21;;;;;;;;;;;;;;;28.73;36.77;99965.19;5088380;28;1906;-38
2022/06/21 07:19:46;;;;;;;;;;;;;;;28.83;36.41;99956.63;5091672;28;928;-41
2022/06/21 07:22:14;;;;;;;;;;;;;;;28.91;35.96;99966.41;5101613;28;978;-40
2022/06/21 07:24:39;;;;;;;;;;;;;;;28.83;35.81;99960.16;5096720;28;1134;-37
2022/06/21 07:27:05;;;;;;;;;;;;;;;28.88;36.23;99958.72;5093934;28;860;-40
2022/06/21 07:29:30;;;;;;;;;;;;;;;28.93;35.60;99958.88;5096896;28;1221;-41
2022/06/21 07:31:59;;;;;;;;;;;;;;;28.90;35.85;99956.59;5096096;28;988;-39
2022/06/21 07:34:27;;;;;;;;;;;;;;;28.81;36.06;99964.16;5091626;28;1170;-37
2022/06/21 07:36:58;;;;;;;;;;;;;;;28.56;35.74;99973.78;5098581;28;1675;-41
2022/06/21 07:39:27;;;;;;;;;;;;;;;28.55;35.77;99964.00;5100941;28;1909;-37
2022/06/21 07:42:18;;;;;;;;;;;;;;;28.44;36.11;99960.09;5093536;28;1146;-41
2022/06/21 07:44:46;;;;;;;;;;;;;;;28.41;36.10;99963.19;5072284;28;1059;-41
2022/06/21 07:47:14;;;;;;;;;;;;;;;28.51;36.43;99972.75;5093218;28;1024;-37
2022/06/21 07:49:41;;;;;;;;;;;;;;;28.64;36.31;99963.78;5095540;28;1071;-40
2022/06/21 07:52:09;;;;;;;;;;;;;;;28.61;36.13;99965.03;5095893;28;1166;-39
2022/06/21 07:54:36;;;;;;;;;;;;;;;28.58;35.81;99971.69;5108199;28;952;-37
2022/06/21 07:57:09;;;;;;;;;;;;;;;28.53;35.59;99963.38;5092678;28;924;-39
2022/06/21 07:59:38;;;;;;;;;;;;;;;28.48;35.71;99955.91;5096576;28;1039;-39
2022/06/21 08:07:48;;;;;;;;;;;;;;;28.61;36.07;99954.22;5098997;28;908;-38
2022/06/21 08:10:14;;;;;;;;;;;;;;;28.72;35.86;99950.84;5095144;28;1020;-36
2022/06/21 08:12:39;;;;;;;;;;;;;;;28.57;35.47;99947.56;5095686;28;972;-37
2022/06/21 08:15:05;;;;;;;;;;;;;;;28.49;35.44;99948.63;5096019;28;968;-40
2022/06/21 08:17:35;;;;;;;;;;;;;;;28.48;35.67;99953.19;5094096;28;1959;-40
2022/06/21 08:20:04;;;;;;;;;;;;;;;28.67;35.56;99956.06;5095284;28;1080;-36
2022/06/21 08:22:31;;;;;;;;;;;;;;;28.73;35.27;99948.94;5101473;28;1036;-34
2022/06/21 08:24:57;;;;;;;;;;;;;;;28.61;35.44;99948.81;5106960;28;1023;-38
2022/06/21 08:27:23;;;;;;;;;;;;;;;28.52;35.79;99948.19;5098244;28;945;-40
2022/06/21 08:29:55;;;;;;;;;;;;;;;28.56;36.36;99943.19;5099071;28;1055;-37
2022/06/21 08:32:24;;;;;;;;;;;;;;;28.60;36.23;99933.59;5099724;28;1079;-39
2022/06/21 08:34:50;;;;;;;;;;;;;;;28.55;36.68;99936.09;5099256;28;964;-39
2022/06/21 08:37:24;;;;;;;;;;;;;;;28.56;37.09;99938.59;5097182;28;1913;-38
2022/06/21 08:40:00;;;;;;;;;;;;;;;28.66;36.78;99929.22;5094387;28;1156;-38
2022/06/21 08:42:42;;;;;;;;;;;;;;;28.76;36.36;99926.88;5098766;28;1119;-38
2022/06/21 08:47:57;;;;;;;;;;;;;;;28.80;36.83;99924.56;5099312;28;952;-37
2022/06/21 08:50:36;;;;;;;;;;;;;;;28.87;36.60;99911.00;5097175;28;1039;-36
2022/06/21 08:53:01;;;;;;;;;;;;;;;28.84;36.60;99923.13;5101193;28;1004;-38
2022/06/21 08:55:29;;;;;;;;;;;;;;;28.84;36.89;99928.53;5098977;28;1150;-39
2022/06/21 08:58:13;;;;;;;;;;;;;;;28.85;36.68;99911.22;5118194;28;1905;-37
2022/06/21 09:00:42;;;;;;;;;;;;;;;28.90;36.66;99916.00;5094082;28;1020;-38
2022/06/21 09:03:26;;;;;;;;;;;;;;;28.76;37.11;99918.75;5099322;28;1171;-39
2022/06/21 09:06:09;;;;;;;;;;;;;;;28.65;37.37;99914.00;5095677;28;833;-37
2022/06/21 09:08:42;;;;;;;;;;;;;;;28.62;37.34;99914.44;5100530;28;999;-38
2022/06/21 09:11:33;;;;;;;;;;;;;;;28.69;37.30;99907.97;5091563;28;1012;-36
2022/06/21 09:14:02;;;;;;;;;;;;;;;28.80;36.72;99906.47;5095548;28;1412;-36
2022/06/21 09:16:27;;;;;;;;;;;;;;;28.83;36.71;99906.03;5098893;28;957;-39
2022/06/21 09:18:53;;;;;;;;;;;;;;;28.87;37.04;99913.72;5102288;28;1971;-39
2022/06/21 09:21:35;;;;;;;;;;;;;;;28.81;37.80;99913.53;5108656;28;933;-39
2022/06/21 09:24:05;;;;;;;;;;;;;;;28.91;36.89;99913.06;5108161;28;1142;-39
2022/06/21 09:26:33;;;;;;;;;;;;;;;28.90;36.86;99903.28;5097352;28;1048;-37
2022/06/21 09:29:19;;;;;;;;;;;;;;;28.99;37.43;99905.78;5098148;28;944;-38
2022/06/21 09:31:49;;;;;;;;;;;;;;;29.13;37.22;99909.25;5104782;28;1200;-37
2022/06/21 09:34:53;;;;;;;;;;;;;;;29.17;37.08;99907.75;5087532;28;1122;-37
2022/06/21 09:37:22;;;;;;;;;;;;;;;29.05;37.22;99913.03;5034976;28;1913;-40
2022/06/21 09:39:50;;;;;;;;;;;;;;;29.03;37.71;99899.72;5036522;28;1037;-38
2022/06/21 09:42:27;;;;;;;;;;;;;;;29.04;37.39;99898.69;5063830;28;1052;-38
2022/06/21 09:45:06;;;;;;;;;;;;;;;28.96;37.75;99902.41;5096597;28;1068;-37
2022/06/21 09:47:43;;;;;;;;;;;;;;;29.07;37.61;99914.50;5096590;28;1572;-36
2022/06/21 09:50:17;;;;;;;;;;;;;;;29.08;37.66;99891.78;5095237;28;993;-38
2022/06/21 09:52:52;;;;;;;;;;;;;;;29.17;37.42;99895.06;5096582;28;1087;-37
2022/06/21 09:55:24;;;;;;;;;;;;;;;29.25;37.32;99891.25;5096695;28;957;-40
2022/06/21 09:57:55;;;;;;;;;;;;;;;29.18;37.50;99890.44;5096696;28;1890;-36
2022/06/21 10:00:27;;;;;;;;;;;;;;;29.31;37.35;99890.38;5096328;28;1186;-39
2022/06/21 10:03:12;;;;;;;;;;;;;;;29.46;36.65;99884.63;5097840;28;968;-37
2022/06/21 10:05:56;;;;;;;;;;;;;;;29.54;36.60;99883.56;5094630;28;1128;-39
2022/06/21 10:08:40;;;;;;;;;;;;;;;29.55;36.35;99877.06;5098425;28;1016;-40
2022/06/21 10:11:34;;;;;;;;;;;;;;;29.63;36.59;99876.00;5097852;28;1048;-40
2022/06/21 10:14:18;;;;;;;;;;;;;;;29.77;36.04;99871.28;5081146;28;1166;-38
2022/06/21 10:16:48;;;;;;;;;;;;;;;29.90;35.84;99874.91;5093774;28;1178;-38
2022/06/21 10:19:16;;;;;;;;;;;;;;;29.78;36.05;99872.13;5096221;28;1897;-41
2022/06/21 10:21:47;;;;;;;;;;;;;;;29.90;35.94;99858.66;5090627;28;1240;-38
2022/06/21 10:24:17;;;;;;;;;;;;;;;29.87;35.73;99862.66;5096326;28;1039;-40
2022/06/21 10:27:04;;;;;;;;;;;;;;;29.94;36.11;99859.88;5090440;28;1320;-40
2022/06/21 10:29:48;;;;;;;;;;;;;;;29.99;36.21;99870.03;5093017;28;1044;-41
2022/06/21 10:32:36;;;;;;;;;;;;;;;30.23;35.95;99870.25;5097695;28;933;-40
2022/06/21 10:35:10;;;;;;;;;;;;;;;29.96;36.78;99863.19;5095340;28;1267;-42
2022/06/21 10:37:56;;;;;;;;;;;;;;;29.91;36.31;99863.03;5096628;28;1972;-42
2022/06/21 10:40:25;;;;;;;;;;;;;;;29.75;36.62;99851.72;5097754;28;1199;-41
2022/06/21 10:43:09;;;;;;;;;;;;;;;29.73;36.77;99848.38;5096724;28;1087;-40
2022/06/21 10:45:37;;;;;;;;;;;;;;;29.61;37.12;99847.47;5095462;28;1227;-41
2022/06/21 10:48:12;;;;;;;;;;;;;;;29.74;36.75;99843.78;5100892;28;1210;-42
2022/06/21 10:50:40;;;;;;;;;;;;;;;29.68;36.80;99840.91;5106341;28;860;-41
2022/06/21 10:53:11;;;;;;;;;;;;;;;29.54;37.29;99836.66;5100797;27;1133;-43
2022/06/21 10:57:09;;;;;;;;;;;;;;;29.66;36.90;99843.03;5097898;28;1241;-41
2022/06/21 10:58:40;;;;;;;;;;;;;;;29.64;36.90;99841.59;5098268;28;1953;-44
2022/06/21 11:01:18;;;;;;;;;;;;;;;29.94;36.35;99838.19;5106944;28;1087;-41
2022/06/21 11:04:02;;;;;;;;;;;;;;;29.75;36.48;99832.72;5096271;28;946;-41
2022/06/21 11:06:33;;;;;;;;;;;;;;;29.92;36.29;99832.16;5098371;28;1003;-41
2022/06/21 11:09:03;;;;;;;;;;;;;;;29.93;36.13;99833.78;5095422;28;992;-39
2022/06/21 11:11:48;;;;;;;;;;;;;;;29.95;36.32;99837.13;5096962;28;1039;-39
2022/06/21 11:14:28;;;;;;;;;;;;;;;30.10;36.05;99834.03;5098129;28;1012;-41
2022/06/21 11:17:09;;;;;;;;;;;;;;;30.03;36.08;99828.69;5095940;28;1122;-42
2022/06/21 11:19:34;;;;;;;;;;;;;;;29.88;36.35;99820.13;5095399;28;1897;-41
2022/06/21 11:22:05;;;;;;;;;;;;;;;30.01;36.07;99816.41;5095562;28;1142;-42
2022/06/21 11:24:41;;;;;;;;;;;;;;;29.87;36.48;99827.41;5100871;28;1083;-41
2022/06/21 11:27:19;;;;;;;;;;;;;;;30.07;36.46;99820.94;5095723;28;1139;-42
2022/06/21 11:30:00;;;;;;;;;;;;;;;30.02;36.31;99807.22;5086003;28;988;-41
2022/06/21 11:32:44;;;;;;;;;;;;;;;30.10;36.16;99806.09;5091364;28;918;-41
2022/06/21 11:35:09;;;;;;;;;;;;;;;30.44;35.91;99801.13;5095782;28;1023;-38
2022/06/21 11:37:38;;;;;;;;;;;;;;;31.06;34.88;99796.53;5100096;28;1903;-40
2022/06/21 11:40:22;;;;;;;;;;;;;;;31.06;34.24;99787.53;5096771;28;1122;-40
2022/06/21 11:42:54;;;;;;;;;;;;;;;30.53;35.19;99785.38;5095956;28;989;-38
2022/06/21 11:45:22;;;;;;;;;;;;;;;30.26;35.72;99788.41;5095131;28;1214;-40
2022/06/21 11:47:53;;;;;;;;;;;;;;;30.85;34.91;99781.56;5090198;28;988;-39
2022/06/21 11:50:27;;;;;;;;;;;;;;;30.87;34.80;99774.03;5104000;28;1446;-40
2022/06/21 11:53:24;;;;;;;;;;;;;;;30.39;35.31;99774.69;5091967;28;913;-40
2022/06/21 11:55:55;;;;;;;;;;;;;;;30.10;35.76;99766.25;5062689;28;1287;-37
2022/06/21 11:58:40;;;;;;;;;;;;;;;30.19;35.65;99762.19;5100061;28;1952;-40
2022/06/21 12:01:25;;;;;;;;;;;;;;;30.14;36.03;99753.06;5096226;28;968;-41
2022/06/21 12:03:57;;;;;;;;;;;;;;;29.84;35.23;99751.94;5098659;28;1139;-41
2022/06/21 12:06:29;;;;;;;;;;;;;;;30.12;35.27;99750.56;5089085;28;956;-40
2022/06/21 12:09:01;;;;;;;;;;;;;;;30.30;38.06;99747.03;5087426;28;916;-37
2022/06/21 12:11:29;;;;;;;;;;;;;;;29.06;36.14;99736.00;5098151;28;984;-39
2022/06/21 12:13:54;;;;;;;;;;;;;;;27.55;37.75;99734.16;5100037;28;1036;-38
2022/06/21 12:16:20;;;;;;;;;;;;;;;27.05;39.78;99735.44;5105494;28;996;-38
2022/06/21 12:18:47;;;;;;;;;;;;;;;26.56;39.79;99737.44;5095163;28;1894;-36
2022/06/21 12:21:13;;;;;;;;;;;;;;;26.06;41.11;99731.22;5108010;28;968;-39
2022/06/21 12:23:44;;;;;;;;;;;;;;;25.89;41.63;99712.69;5100973;28;1038;-37
2022/06/21 12:26:20;;;;;;;;;;;;;;;25.91;41.54;99707.94;5098084;28;1141;-39
2022/06/21 12:28:46;;;;;;;;;;;;;;;25.72;42.12;99708.69;5099926;28;1185;-36
2022/06/21 12:31:22;;;;;;;;;;;;;;;26.28;42.76;99710.38;5097563;28;972;-39
2022/06/21 12:33:49;;;;;;;;;;;;;;;27.60;40.17;99718.16;5095707;28;1112;-38
2022/06/21 12:36:20;;;;;;;;;;;;;;;26.47;40.16;99718.75;5097796;28;1532;-35
2022/06/21 12:38:48;;;;;;;;;;;;;;;25.80;41.54;99719.28;5094327;28;1988;-39
2022/06/21 12:41:49;;;;;;;;;;;;;;;25.53;42.40;99719.09;5098115;28;1258;-39
2022/06/21 12:44:31;;;;;;;;;;;;;;;25.28;43.08;99712.31;5034435;28;1330;-39
2022/06/21 12:47:08;;;;;;;;;;;;;;;25.28;43.43;99704.25;5087553;28;1011;-38
2022/06/21 12:49:36;;;;;;;;;;;;;;;25.74;45.85;99703.94;5087911;28;1234;-37
2022/06/21 12:52:03;;;;;;;;;;;;;;;27.29;40.92;99700.78;5092242;28;1098;-37
2022/06/21 12:54:46;;;;;;;;;;;;;;;26.32;41.17;99701.88;5098295;28;968;-38
2022/06/21 12:57:11;;;;;;;;;;;;;;;25.53;42.77;99689.47;5097794;28;1011;-40
2022/06/21 12:59:40;;;;;;;;;;;;;;;25.27;43.20;99691.81;5100676;28;1897;-39
2022/06/21 13:02:23;;;;;;;;;;;;;;;25.00;43.70;99697.00;5099046;28;1150;-38
2022/06/21 13:05:06;;;;;;;;;;;;;;;24.95;43.88;99691.34;5098074;28;1080;-39
2022/06/21 13:07:50;;;;;;;;;;;;;;;25.46;46.06;99694.81;5095237;28;1035;-38
2022/06/21 13:10:34;;;;;;;;;;;;;;;27.18;41.63;99690.56;5099096;28;1169;-37
2022/06/21 13:13:05;;;;;;;;;;;;;;;25.85;42.40;99689.88;5099320;28;968;-39
2022/06/21 13:15:31;;;;;;;;;;;;;;;25.06;43.91;99693.50;5098878;28;1004;-40
2022/06/21 13:18:08;;;;;;;;;;;;;;;24.82;44.33;99676.72;5087666;28;1910;-37
2022/06/21 13:20:40;;;;;;;;;;;;;;;24.70;44.76;99683.66;5085744;28;1201;-38
2022/06/21 13:23:20;;;;;;;;;;;;;;;24.50;45.46;99683.47;5084795;28;1182;-39
2022/06/21 13:25:48;;;;;;;;;;;;;;;25.89;43.69;99688.44;5095471;28;1183;-38
2022/06/21 13:28:29;;;;;;;;;;;;;;;26.41;41.34;99682.63;5096724;28;1068;-38
2022/06/21 13:31:06;;;;;;;;;;;;;;;25.19;41.88;99676.63;5098844;28;969;-38
2022/06/21 13:33:34;;;;;;;;;;;;;;;24.72;43.63;99680.78;5107138;28;1067;-39